Aérodrome :
LOGIN :

S'inscrire | Disclaimer

   EN    FR    IT 

 










Légende :    VFR   VFR Marginal   IFR   IFR Intensif   IFR Très Intensif
Visi : 
Plafond : 
>= 8 km
>= 3000ft
5 à 8 km
1000 à 3000 ft
1500m à 5 km
500 à 1000 ft
800 à 1500m
200 à 500 ft
< 800m
< 200 ft
Symboles :   Orages  Brouillard  Fortes neiges  Fortes précipitations  Vent > 20 kt
SIGMETs :   Divers  Orages  Givrage  Turbulence  Onde Orograph.  Cendres Volcan.







- Altitude de l'aérodrome : 370 ft


EBBE - Beauvechain AB

DERNIER METAR :
  • 141225Z 22018KT 9999 FEW009 SCT018 BKN040 04/02 Q0994 WHT WHT TEMPO GRN

METARs EXPIRÉS :
  • 141155Z 22016KT 9999 FEW009 SCT020 BKN046 03/01 Q0994 WHT WHT TEMPO GRN
  • 141125Z 21015KT 9999 FEW011 SCT022 BKN050 03/01 Q0995 WHT WHT TEMPO GRN
  • 141109Z 22015KT 9999 FEW011 SCT022 BKN050 03/01 Q0995 WHT WHT TEMPO GRN
  • 141055Z 23017KT 9999 SCT010 SCT015 BKN018 03/01 Q0995 GRN WHT TEMPO GRN
  • 141025Z 22016KT 9999 SCT010 BKN015 BKN018 03/01 Q0995 GRN WHT TEMPO GRN
  • 140955Z 22014KT 9999 SCT009 SCT015 BKN029 03/02 Q0995 GRN WHT TEMPO GRN

TAF TAF EBBE
Valide du 14 à 13h jusqu'au 14 à 22h UTC


141142Z 1413/1422 22015G25KT 9999 SCT018 BKN025
TEMPO 1413/1420 4000 -SHRA SCT012 SCT015TCU BKN020
BECMG 1417/1419 22010G20KT SCT015 BKN020
BECMG 1418/1420 FEW006 SCT010 BKN015
PROB30
TEMPO 1420/1422 SCT006 BKN010
Pas de NOTAMs connus pour ce terrain.



MET'MAP, la Météo Aéronautique d'un coup d'oeil ! - Copyright ORBIFLY Décembre 2007 - Disclaimer

ORBIFLY MET'MAP TEAM :

Programmation & Développement : Alexandra Zaïnal
Conception & Développement : Baudouin d'Aumeries
Co-Programmation & Développement : Marc-Olivier Méhu
Soutien technique & logistique : Manuel Goepfert

Contact : metmap@orbifly.com




SOURCES & CREDITS :

   NOAA